sensor_id;sensor_type;location;lat;lon;timestamp;P1;P2;P0
66195;PMS7003;53000;45.182;5.736;2022-09-14T00:01:23;5.50;5.00;4.50
66195;PMS7003;53000;45.182;5.736;2022-09-14T00:03:53;4.50;4.50;4.00
66195;PMS7003;53000;45.182;5.736;2022-09-14T00:06:19;1.75;1.75;1.00
66195;PMS7003;53000;45.182;5.736;2022-09-14T00:08:48;6.00;6.00;5.00
66195;PMS7003;53000;45.182;5.736;2022-09-14T00:11:15;6.00;6.00;5.00
66195;PMS7003;53000;45.182;5.736;2022-09-14T00:13:41;5.50;5.25;5.00
66195;PMS7003;53000;45.182;5.736;2022-09-14T00:16:12;5.25;5.00;4.50
66195;PMS7003;53000;45.182;5.736;2022-09-14T00:18:42;7.00;6.00;5.25
66195;PMS7003;53000;45.182;5.736;2022-09-14T00:21:09;5.00;5.00;4.50
66195;PMS7003;53000;45.182;5.736;2022-09-14T00:23:36;7.00;5.25;5.00
66195;PMS7003;53000;45.182;5.736;2022-09-14T00:26:04;6.25;5.00;5.00
66195;PMS7003;53000;45.182;5.736;2022-09-14T00:28:38;7.00;5.00;4.50
66195;PMS7003;53000;45.182;5.736;2022-09-14T00:31:06;5.50;5.50;5.00
66195;PMS7003;53000;45.182;5.736;2022-09-14T00:33:32;5.00;5.00;4.00
66195;PMS7003;53000;45.182;5.736;2022-09-14T00:36:05;5.75;5.50;4.50
66195;PMS7003;53000;45.182;5.736;2022-09-14T00:38:34;5.75;5.00;4.00
66195;PMS7003;53000;45.182;5.736;2022-09-14T00:41:01;4.75;4.75;4.00
66195;PMS7003;53000;45.182;5.736;2022-09-14T00:43:28;5.00;4.25;4.00
66195;PMS7003;53000;45.182;5.736;2022-09-14T00:45:53;7.00;6.00;5.00
66195;PMS7003;53000;45.182;5.736;2022-09-14T00:48:19;7.00;6.00;5.00
66195;PMS7003;53000;45.182;5.736;2022-09-14T00:50:46;6.25;5.00;5.00
66195;PMS7003;53000;45.182;5.736;2022-09-14T00:53:12;6.00;5.25;4.25
66195;PMS7003;53000;45.182;5.736;2022-09-14T00:55:37;7.00;6.50;5.25
66195;PMS7003;53000;45.182;5.736;2022-09-14T00:58:03;6.50;5.25;5.00
66195;PMS7003;53000;45.182;5.736;2022-09-14T01:00:29;5.00;5.00;5.00
66195;PMS7003;53000;45.182;5.736;2022-09-14T01:02:54;6.25;6.25;5.50
66195;PMS7003;53000;45.182;5.736;2022-09-14T01:05:23;9.25;6.50;5.75
66195;PMS7003;53000;45.182;5.736;2022-09-14T01:18:41;6.50;5.50;5.00
66195;PMS7003;53000;45.182;5.736;2022-09-14T01:31:20;7.25;7.25;5.00
66195;PMS7003;53000;45.182;5.736;2022-09-14T01:33:51;8.50;8.50;7.00
66195;PMS7003;53000;45.182;5.736;2022-09-14T01:36:23;9.50;8.50;7.75
66195;PMS7003;53000;45.182;5.736;2022-09-14T01:38:52;8.00;7.00;6.00
66195;PMS7003;53000;45.182;5.736;2022-09-14T01:41:21;4.75;4.75;3.75
66195;PMS7003;53000;45.182;5.736;2022-09-14T01:43:53;6.25;6.25;5.25
66195;PMS7003;53000;45.182;5.736;2022-09-14T01:46:29;7.25;7.25;6.25
66195;PMS7003;53000;45.182;5.736;2022-09-14T01:49:07;7.00;7.00;6.00
66195;PMS7003;53000;45.182;5.736;2022-09-14T01:51:40;8.50;8.00;7.00
66195;PMS7003;53000;45.182;5.736;2022-09-14T01:54:24;6.75;6.75;6.25
66195;PMS7003;53000;45.182;5.736;2022-09-14T01:56:54;9.50;8.00;6.25
66195;PMS7003;53000;45.182;5.736;2022-09-14T01:59:24;6.50;6.00;6.00
66195;PMS7003;53000;45.182;5.736;2022-09-14T02:01:57;7.25;7.00;5.00
66195;PMS7003;53000;45.182;5.736;2022-09-14T02:07:25;10.75;9.00;8.00
66195;PMS7003;53000;45.182;5.736;2022-09-14T02:09:50;7.00;6.75;6.00
66195;PMS7003;53000;45.182;5.736;2022-09-14T02:12:18;8.00;6.75;5.25
66195;PMS7003;53000;45.182;5.736;2022-09-14T02:14:46;6.25;6.00;5.00
66195;PMS7003;53000;45.182;5.736;2022-09-14T02:17:12;6.75;6.75;6.00
66195;PMS7003;53000;45.182;5.736;2022-09-14T02:19:49;6.00;6.00;5.00
66195;PMS7003;53000;45.182;5.736;2022-09-14T02:22:19;8.00;6.00;6.00
66195;PMS7003;53000;45.182;5.736;2022-09-14T02:24:45;8.00;8.00;7.00
66195;PMS7003;53000;45.182;5.736;2022-09-14T02:27:10;7.50;7.00;6.00
66195;PMS7003;53000;45.182;5.736;2022-09-14T02:29:36;7.50;7.25;6.50
66195;PMS7003;53000;45.182;5.736;2022-09-14T02:34:36;9.50;8.50;7.25
66195;PMS7003;53000;45.182;5.736;2022-09-14T02:37:12;9.00;7.00;6.00
66195;PMS7003;53000;45.182;5.736;2022-09-14T02:39:52;7.50;7.50;6.25
66195;PMS7003;53000;45.182;5.736;2022-09-14T02:42:30;6.75;6.75;5.75
66195;PMS7003;53000;45.182;5.736;2022-09-14T02:47:37;10.25;7.75;6.25
66195;PMS7003;53000;45.182;5.736;2022-09-14T02:50:25;7.25;6.00;4.75
66195;PMS7003;53000;45.182;5.736;2022-09-14T02:55:50;6.50;6.50;6.00
66195;PMS7003;53000;45.182;5.736;2022-09-14T02:58:19;8.25;8.25;8.00
66195;PMS7003;53000;45.182;5.736;2022-09-14T03:00:46;10.50;7.75;6.25
66195;PMS7003;53000;45.182;5.736;2022-09-14T03:03:14;9.25;8.50;7.25
66195;PMS7003;53000;45.182;5.736;2022-09-14T03:05:41;6.75;6.50;5.75
66195;PMS7003;53000;45.182;5.736;2022-09-14T03:08:07;8.75;7.00;6.25
66195;PMS7003;53000;45.182;5.736;2022-09-14T03:10:34;9.00;8.00;6.50
66195;PMS7003;53000;45.182;5.736;2022-09-14T03:12:59;8.25;8.00;7.00
66195;PMS7003;53000;45.182;5.736;2022-09-14T03:15:25;7.75;6.00;6.00
66195;PMS7003;53000;45.182;5.736;2022-09-14T03:17:51;6.75;6.00;6.00
66195;PMS7003;53000;45.182;5.736;2022-09-14T03:20:18;8.50;6.75;6.25
66195;PMS7003;53000;45.182;5.736;2022-09-14T03:22:45;7.00;7.00;6.00
66195;PMS7003;53000;45.182;5.736;2022-09-14T03:25:11;7.50;7.00;5.75
66195;PMS7003;53000;45.182;5.736;2022-09-14T03:27:36;5.25;5.25;4.00
66195;PMS7003;53000;45.182;5.736;2022-09-14T03:30:03;7.25;6.25;5.25
66195;PMS7003;53000;45.182;5.736;2022-09-14T03:32:29;6.00;6.00;5.50
66195;PMS7003;53000;45.182;5.736;2022-09-14T03:34:54;9.00;8.00;7.00
66195;PMS7003;53000;45.182;5.736;2022-09-14T03:37:21;8.25;8.25;7.25
66195;PMS7003;53000;45.182;5.736;2022-09-14T03:39:47;8.00;7.00;6.50
66195;PMS7003;53000;45.182;5.736;2022-09-14T03:42:12;7.75;6.00;6.00
66195;PMS7003;53000;45.182;5.736;2022-09-14T03:44:37;7.50;7.50;6.25
66195;PMS7003;53000;45.182;5.736;2022-09-14T03:47:03;8.00;7.75;7.00
66195;PMS7003;53000;45.182;5.736;2022-09-14T03:49:28;7.00;7.00;6.25
66195;PMS7003;53000;45.182;5.736;2022-09-14T03:51:53;7.00;7.00;5.00
66195;PMS7003;53000;45.182;5.736;2022-09-14T03:54:19;6.25;6.00;5.00
66195;PMS7003;53000;45.182;5.736;2022-09-14T03:56:44;9.75;7.00;6.00
66195;PMS7003;53000;45.182;5.736;2022-09-14T03:59:09;6.50;6.25;5.50
66195;PMS7003;53000;45.182;5.736;2022-09-14T04:01:35;6.25;4.50;4.25
66195;PMS7003;53000;45.182;5.736;2022-09-14T04:04:02;7.75;7.00;6.75
66195;PMS7003;53000;45.182;5.736;2022-09-14T04:06:27;6.75;6.50;5.50
66195;PMS7003;53000;45.182;5.736;2022-09-14T04:08:53;6.75;6.00;6.00
66195;PMS7003;53000;45.182;5.736;2022-09-14T04:11:20;6.50;6.50;6.00
66195;PMS7003;53000;45.182;5.736;2022-09-14T04:13:47;8.75;8.00;7.00
66195;PMS7003;53000;45.182;5.736;2022-09-14T04:16:14;7.00;7.00;6.00
66195;PMS7003;53000;45.182;5.736;2022-09-14T04:18:40;7.75;7.75;6.75
66195;PMS7003;53000;45.182;5.736;2022-09-14T04:21:12;8.75;7.00;6.50
66195;PMS7003;53000;45.182;5.736;2022-09-14T04:23:39;7.00;6.00;6.00
66195;PMS7003;53000;45.182;5.736;2022-09-14T04:26:11;8.00;7.25;6.00
66195;PMS7003;53000;45.182;5.736;2022-09-14T04:28:39;7.25;7.25;6.00
66195;PMS7003;53000;45.182;5.736;2022-09-14T04:31:04;8.25;8.00;6.00
66195;PMS7003;53000;45.182;5.736;2022-09-14T04:33:31;7.00;7.00;6.00
66195;PMS7003;53000;45.182;5.736;2022-09-14T04:35:59;7.50;7.50;6.00
66195;PMS7003;53000;45.182;5.736;2022-09-14T04:38:27;6.75;6.75;5.75
66195;PMS7003;53000;45.182;5.736;2022-09-14T04:40:54;7.25;6.50;5.75
66195;PMS7003;53000;45.182;5.736;2022-09-14T04:43:20;8.50;8.25;7.25
66195;PMS7003;53000;45.182;5.736;2022-09-14T04:45:45;11.00;8.25;7.00
66195;PMS7003;53000;45.182;5.736;2022-09-14T04:48:11;7.00;6.50;6.00
66195;PMS7003;53000;45.182;5.736;2022-09-14T04:50:36;9.50;8.00;6.00
66195;PMS7003;53000;45.182;5.736;2022-09-14T04:53:02;9.00;9.00;7.00
66195;PMS7003;53000;45.182;5.736;2022-09-14T04:55:27;9.75;9.00;8.00
66195;PMS7003;53000;45.182;5.736;2022-09-14T04:57:53;10.00;8.25;7.00
66195;PMS7003;53000;45.182;5.736;2022-09-14T05:00:19;7.25;7.25;6.25
66195;PMS7003;53000;45.182;5.736;2022-09-14T05:02:44;11.00;10.00;8.00
66195;PMS7003;53000;45.182;5.736;2022-09-14T05:05:10;9.75;9.75;8.00
66195;PMS7003;53000;45.182;5.736;2022-09-14T05:07:36;14.00;12.00;10.25
66195;PMS7003;53000;45.182;5.736;2022-09-14T05:10:02;11.50;10.50;9.25
66195;PMS7003;53000;45.182;5.736;2022-09-14T05:12:28;11.75;10.75;8.25
66195;PMS7003;53000;45.182;5.736;2022-09-14T05:14:54;13.50;10.50;8.75
66195;PMS7003;53000;45.182;5.736;2022-09-14T05:17:19;8.75;8.75;7.50
66195;PMS7003;53000;45.182;5.736;2022-09-14T05:19:45;10.25;10.00;8.25
66195;PMS7003;53000;45.182;5.736;2022-09-14T05:22:11;11.00;11.00;8.25
66195;PMS7003;53000;45.182;5.736;2022-09-14T05:24:37;8.50;8.50;7.00
66195;PMS7003;53000;45.182;5.736;2022-09-14T05:27:02;12.50;11.50;9.00
66195;PMS7003;53000;45.182;5.736;2022-09-14T05:29:28;11.00;11.00;9.50
66195;PMS7003;53000;45.182;5.736;2022-09-14T05:31:54;8.75;8.00;7.00
66195;PMS7003;53000;45.182;5.736;2022-09-14T05:34:19;11.25;10.00;8.75
66195;PMS7003;53000;45.182;5.736;2022-09-14T05:36:44;10.25;9.25;7.25
66195;PMS7003;53000;45.182;5.736;2022-09-14T05:39:10;11.25;10.50;9.25
66195;PMS7003;53000;45.182;5.736;2022-09-14T05:41:35;12.75;9.75;9.00
66195;PMS7003;53000;45.182;5.736;2022-09-14T05:44:01;10.25;10.25;8.25
66195;PMS7003;53000;45.182;5.736;2022-09-14T05:46:27;11.50;11.00;10.00
66195;PMS7003;53000;45.182;5.736;2022-09-14T05:48:53;6.75;6.50;6.00
66195;PMS7003;53000;45.182;5.736;2022-09-14T05:51:22;13.75;11.75;10.00
66195;PMS7003;53000;45.182;5.736;2022-09-14T05:53:50;11.25;10.00;8.75
66195;PMS7003;53000;45.182;5.736;2022-09-14T05:56:17;12.25;12.25;10.00
66195;PMS7003;53000;45.182;5.736;2022-09-14T05:58:44;12.50;10.75;9.25
66195;PMS7003;53000;45.182;5.736;2022-09-14T06:03:35;11.25;11.00;10.00
66195;PMS7003;53000;45.182;5.736;2022-09-14T06:06:02;13.50;13.50;11.25
66195;PMS7003;53000;45.182;5.736;2022-09-14T06:08:29;17.25;15.50;12.75
66195;PMS7003;53000;45.182;5.736;2022-09-14T06:10:54;12.00;12.00;9.25
66195;PMS7003;53000;45.182;5.736;2022-09-14T06:13:20;13.00;12.75;11.00
66195;PMS7003;53000;45.182;5.736;2022-09-14T06:15:47;12.75;10.00;9.00
66195;PMS7003;53000;45.182;5.736;2022-09-14T06:18:13;10.75;10.75;9.25
66195;PMS7003;53000;45.182;5.736;2022-09-14T06:20:39;14.25;10.75;8.75
66195;PMS7003;53000;45.182;5.736;2022-09-14T06:23:04;16.75;13.25;11.50
66195;PMS7003;53000;45.182;5.736;2022-09-14T06:25:30;14.50;13.00;11.00
66195;PMS7003;53000;45.182;5.736;2022-09-14T06:27:55;11.00;10.75;10.00
66195;PMS7003;53000;45.182;5.736;2022-09-14T06:30:21;15.75;13.75;11.00
66195;PMS7003;53000;45.182;5.736;2022-09-14T06:32:46;10.00;9.25;8.25
66195;PMS7003;53000;45.182;5.736;2022-09-14T06:35:12;13.00;12.50;10.00
66195;PMS7003;53000;45.182;5.736;2022-09-14T06:37:37;12.00;10.25;8.00
66195;PMS7003;53000;45.182;5.736;2022-09-14T06:40:03;9.50;8.25;7.75
66195;PMS7003;53000;45.182;5.736;2022-09-14T06:42:29;12.75;10.25;8.75
66195;PMS7003;53000;45.182;5.736;2022-09-14T06:44:55;11.00;10.75;9.75
66195;PMS7003;53000;45.182;5.736;2022-09-14T06:47:20;10.75;9.50;7.75
66195;PMS7003;53000;45.182;5.736;2022-09-14T06:49:47;15.00;13.25;9.00
66195;PMS7003;53000;45.182;5.736;2022-09-14T06:52:14;10.25;9.50;7.00
66195;PMS7003;53000;45.182;5.736;2022-09-14T06:54:39;11.00;11.00;9.75
66195;PMS7003;53000;45.182;5.736;2022-09-14T06:57:05;13.50;12.25;9.50
66195;PMS7003;53000;45.182;5.736;2022-09-14T06:59:30;10.50;9.25;8.00
66195;PMS7003;53000;45.182;5.736;2022-09-14T07:01:55;12.00;10.75;9.00
66195;PMS7003;53000;45.182;5.736;2022-09-14T07:04:21;11.00;10.00;8.00
66195;PMS7003;53000;45.182;5.736;2022-09-14T07:06:47;13.25;10.50;8.50
66195;PMS7003;53000;45.182;5.736;2022-09-14T07:09:14;10.75;9.50;8.25
66195;PMS7003;53000;45.182;5.736;2022-09-14T07:11:40;9.00;9.00;8.00
66195;PMS7003;53000;45.182;5.736;2022-09-14T07:14:07;13.25;10.25;8.75
66195;PMS7003;53000;45.182;5.736;2022-09-14T07:16:34;15.00;13.00;9.75
66195;PMS7003;53000;45.182;5.736;2022-09-14T07:19:01;13.00;13.00;10.00
66195;PMS7003;53000;45.182;5.736;2022-09-14T07:21:29;9.00;9.00;8.00
66195;PMS7003;53000;45.182;5.736;2022-09-14T07:23:56;12.50;11.75;9.00
66195;PMS7003;53000;45.182;5.736;2022-09-14T07:26:22;12.50;11.25;10.00
66195;PMS7003;53000;45.182;5.736;2022-09-14T07:28:51;10.25;10.25;9.00
66195;PMS7003;53000;45.182;5.736;2022-09-14T07:31:23;12.50;11.50;9.00
66195;PMS7003;53000;45.182;5.736;2022-09-14T07:33:53;13.00;10.25;9.00
66195;PMS7003;53000;45.182;5.736;2022-09-14T07:36:19;14.75;13.00;9.25
66195;PMS7003;53000;45.182;5.736;2022-09-14T07:38:45;11.25;10.25;9.00
66195;PMS7003;53000;45.182;5.736;2022-09-14T07:41:10;9.75;8.75;7.00
66195;PMS7003;53000;45.182;5.736;2022-09-14T07:43:36;10.75;10.75;8.75
66195;PMS7003;53000;45.182;5.736;2022-09-14T07:46:02;14.00;11.25;9.75
66195;PMS7003;53000;45.182;5.736;2022-09-14T07:48:29;9.75;9.25;7.50
66195;PMS7003;53000;45.182;5.736;2022-09-14T07:50:59;10.25;10.25;7.00
66195;PMS7003;53000;45.182;5.736;2022-09-14T07:53:26;10.75;10.50;8.75
66195;PMS7003;53000;45.182;5.736;2022-09-14T07:55:51;10.50;10.00;8.00
66195;PMS7003;53000;45.182;5.736;2022-09-14T07:58:16;11.00;9.00;7.00
66195;PMS7003;53000;45.182;5.736;2022-09-14T08:00:42;9.00;9.00;8.00
66195;PMS7003;53000;45.182;5.736;2022-09-14T08:03:07;15.00;13.00;9.75
66195;PMS7003;53000;45.182;5.736;2022-09-14T08:05:33;11.75;10.50;9.00
66195;PMS7003;53000;45.182;5.736;2022-09-14T08:07:58;13.00;13.00;12.00
66195;PMS7003;53000;45.182;5.736;2022-09-14T08:10:24;14.25;12.75;11.00
66195;PMS7003;53000;45.182;5.736;2022-09-14T08:12:53;13.00;11.25;9.00
66195;PMS7003;53000;45.182;5.736;2022-09-14T08:15:20;13.25;12.75;9.75
66195;PMS7003;53000;45.182;5.736;2022-09-14T08:17:47;12.75;12.75;9.75
66195;PMS7003;53000;45.182;5.736;2022-09-14T08:20:12;16.00;13.25;11.25
66195;PMS7003;53000;45.182;5.736;2022-09-14T08:22:40;12.75;11.00;8.75
66195;PMS7003;53000;45.182;5.736;2022-09-14T08:25:07;10.00;9.50;8.00
66195;PMS7003;53000;45.182;5.736;2022-09-14T08:27:32;12.25;11.50;9.75
66195;PMS7003;53000;45.182;5.736;2022-09-14T08:29:58;8.25;8.25;7.25
66195;PMS7003;53000;45.182;5.736;2022-09-14T08:32:23;12.75;12.75;10.25
66195;PMS7003;53000;45.182;5.736;2022-09-14T08:34:48;12.75;11.75;9.75
66195;PMS7003;53000;45.182;5.736;2022-09-14T08:37:16;12.50;11.50;9.25
66195;PMS7003;53000;45.182;5.736;2022-09-14T08:39:41;10.00;10.00;8.75
66195;PMS7003;53000;45.182;5.736;2022-09-14T08:42:08;12.00;12.00;9.75
66195;PMS7003;53000;45.182;5.736;2022-09-14T08:44:44;14.50;12.50;9.50
66195;PMS7003;53000;45.182;5.736;2022-09-14T08:52:37;11.25;10.25;9.25
66195;PMS7003;53000;45.182;5.736;2022-09-14T08:58:10;13.25;11.25;8.75
66195;PMS7003;53000;45.182;5.736;2022-09-14T09:09:44;7.25;6.75;6.00
66195;PMS7003;53000;45.182;5.736;2022-09-14T09:12:16;7.00;6.75;5.50
66195;PMS7003;53000;45.182;5.736;2022-09-14T09:14:53;10.25;6.00;5.00
66195;PMS7003;53000;45.182;5.736;2022-09-14T09:17:37;9.00;7.00;6.25
66195;PMS7003;53000;45.182;5.736;2022-09-14T09:20:10;9.50;6.00;6.00
66195;PMS7003;53000;45.182;5.736;2022-09-14T09:22:44;8.00;7.50;6.00
66195;PMS7003;53000;45.182;5.736;2022-09-14T09:25:16;7.00;5.00;5.00
66195;PMS7003;53000;45.182;5.736;2022-09-14T09:27:47;8.50;6.75;5.00
66195;PMS7003;53000;45.182;5.736;2022-09-14T09:30:14;7.50;6.00;4.75
66195;PMS7003;53000;45.182;5.736;2022-09-14T09:32:40;6.00;6.00;5.00
66195;PMS7003;53000;45.182;5.736;2022-09-14T09:35:06;6.00;5.75;5.25
66195;PMS7003;53000;45.182;5.736;2022-09-14T09:37:36;4.75;4.75;4.00
66195;PMS7003;53000;45.182;5.736;2022-09-14T09:40:07;5.75;5.00;4.50
66195;PMS7003;53000;45.182;5.736;2022-09-14T09:42:41;6.50;5.00;4.00
66195;PMS7003;53000;45.182;5.736;2022-09-14T09:46:18;7.00;7.00;5.50
66195;PMS7003;53000;45.182;5.736;2022-09-14T09:49:00;6.50;6.00;5.00
66195;PMS7003;53000;45.182;5.736;2022-09-14T09:53:54;6.00;5.25;4.00
66195;PMS7003;53000;45.182;5.736;2022-09-14T09:56:25;5.75;5.00;4.25
66195;PMS7003;53000;45.182;5.736;2022-09-14T09:58:52;7.00;7.00;5.00
66195;PMS7003;53000;45.182;5.736;2022-09-14T10:03:44;5.00;5.00;4.00
66195;PMS7003;53000;45.182;5.736;2022-09-14T10:06:42;5.25;4.00;3.25
66195;PMS7003;53000;45.182;5.736;2022-09-14T10:09:22;4.75;3.50;3.25
66195;PMS7003;53000;45.182;5.736;2022-09-14T10:12:01;4.75;4.00;3.50
66195;PMS7003;53000;45.182;5.736;2022-09-14T10:14:29;8.00;5.50;4.75
66195;PMS7003;53000;45.182;5.736;2022-09-14T10:19:45;5.00;5.00;4.00
66195;PMS7003;53000;45.182;5.736;2022-09-14T10:24:58;4.00;3.75;3.00
66195;PMS7003;53000;45.182;5.736;2022-09-14T10:27:29;4.50;4.50;3.75
66195;PMS7003;53000;45.182;5.736;2022-09-14T10:29:57;7.00;5.75;5.00
66195;PMS7003;53000;45.182;5.736;2022-09-14T10:32:26;4.50;4.50;3.50
66195;PMS7003;53000;45.182;5.736;2022-09-14T10:34:55;5.75;4.50;4.50
66195;PMS7003;53000;45.182;5.736;2022-09-14T10:40:39;5.50;4.00;4.00
66195;PMS7003;53000;45.182;5.736;2022-09-14T10:43:34;5.75;5.75;4.50
66195;PMS7003;53000;45.182;5.736;2022-09-14T10:46:11;4.25;4.00;3.50
66195;PMS7003;53000;45.182;5.736;2022-09-14T10:51:59;5.50;4.00;4.00
66195;PMS7003;53000;45.182;5.736;2022-09-14T11:16:23;4.25;4.25;4.00
66195;PMS7003;53000;45.182;5.736;2022-09-14T11:24:21;6.25;5.75;5.00
66195;PMS7003;53000;45.182;5.736;2022-09-14T11:27:02;5.00;5.00;4.00
66195;PMS7003;53000;45.182;5.736;2022-09-14T11:29:37;5.00;5.00;4.75
66195;PMS7003;53000;45.182;5.736;2022-09-14T11:34:42;3.50;3.00;3.00
66195;PMS7003;53000;45.182;5.736;2022-09-14T11:37:13;2.75;2.25;2.25
66195;PMS7003;53000;45.182;5.736;2022-09-14T11:42:44;3.25;3.25;2.00
66195;PMS7003;53000;45.182;5.736;2022-09-14T11:45:21;3.00;2.00;2.00
66195;PMS7003;53000;45.182;5.736;2022-09-14T11:47:54;3.00;3.00;2.00
66195;PMS7003;53000;45.182;5.736;2022-09-14T11:50:26;3.50;3.00;2.25
66195;PMS7003;53000;45.182;5.736;2022-09-14T11:53:04;3.75;2.00;2.00
66195;PMS7003;53000;45.182;5.736;2022-09-14T11:55:36;1.75;1.75;1.75
66195;PMS7003;53000;45.182;5.736;2022-09-14T11:58:11;1.75;1.75;1.50
66195;PMS7003;53000;45.182;5.736;2022-09-14T12:03:50;3.00;3.00;2.00
66195;PMS7003;53000;45.182;5.736;2022-09-14T12:11:36;2.25;1.50;1.25
66195;PMS7003;53000;45.182;5.736;2022-09-14T12:14:12;1.75;1.75;1.00
66195;PMS7003;53000;45.182;5.736;2022-09-14T12:19:50;2.75;2.50;2.00
66195;PMS7003;53000;45.182;5.736;2022-09-14T12:25:20;3.50;2.00;1.25
66195;PMS7003;53000;45.182;5.736;2022-09-14T12:27:47;1.00;1.00;0.25
66195;PMS7003;53000;45.182;5.736;2022-09-14T12:33:00;1.00;1.00;0.00
66195;PMS7003;53000;45.182;5.736;2022-09-14T12:37:58;0.00;0.00;0.00
66195;PMS7003;53000;45.182;5.736;2022-09-14T12:40:44;4.00;2.25;1.50
66195;PMS7003;53000;45.182;5.736;2022-09-14T12:46:30;2.00;2.00;1.00
66195;PMS7003;53000;45.182;5.736;2022-09-14T12:49:01;2.25;1.00;0.25
66195;PMS7003;53000;45.182;5.736;2022-09-14T12:51:41;2.75;2.25;1.75
66195;PMS7003;53000;45.182;5.736;2022-09-14T13:04:50;1.50;1.25;1.00
66195;PMS7003;53000;45.182;5.736;2022-09-14T13:07:18;2.00;1.25;1.00
66195;PMS7003;53000;45.182;5.736;2022-09-14T13:09:47;1.50;1.50;1.00
66195;PMS7003;53000;45.182;5.736;2022-09-14T13:15:06;3.25;1.00;1.00
66195;PMS7003;53000;45.182;5.736;2022-09-14T13:20:26;1.25;1.25;1.00
66195;PMS7003;53000;45.182;5.736;2022-09-14T13:22:52;1.25;0.75;0.00
66195;PMS7003;53000;45.182;5.736;2022-09-14T13:25:28;1.50;1.25;1.00
66195;PMS7003;53000;45.182;5.736;2022-09-14T13:27:58;1.50;1.50;1.00
66195;PMS7003;53000;45.182;5.736;2022-09-14T13:30:25;2.00;1.00;0.75
66195;PMS7003;53000;45.182;5.736;2022-09-14T13:32:53;1.00;1.00;1.00
66195;PMS7003;53000;45.182;5.736;2022-09-14T13:35:34;3.00;2.75;1.75
66195;PMS7003;53000;45.182;5.736;2022-09-14T13:40:53;1.50;1.25;0.75
66195;PMS7003;53000;45.182;5.736;2022-09-14T13:43:21;2.25;2.00;1.00
66195;PMS7003;53000;45.182;5.736;2022-09-14T13:45:47;2.00;2.00;1.50
66195;PMS7003;53000;45.182;5.736;2022-09-14T13:48:15;2.00;2.00;2.00
66195;PMS7003;53000;45.182;5.736;2022-09-14T13:50:44;0.50;0.50;0.25
66195;PMS7003;53000;45.182;5.736;2022-09-14T13:58:47;2.75;1.00;0.75
66195;PMS7003;53000;45.182;5.736;2022-09-14T14:01:22;3.50;2.75;1.75
66195;PMS7003;53000;45.182;5.736;2022-09-14T14:03:49;2.50;1.75;1.75
66195;PMS7003;53000;45.182;5.736;2022-09-14T14:08:50;1.00;1.00;0.25
66195;PMS7003;53000;45.182;5.736;2022-09-14T14:11:23;2.00;1.25;1.00
66195;PMS7003;53000;45.182;5.736;2022-09-14T14:13:51;2.00;2.00;1.75
66195;PMS7003;53000;45.182;5.736;2022-09-14T14:16:24;0.50;0.50;0.50
66195;PMS7003;53000;45.182;5.736;2022-09-14T14:18:53;1.75;1.75;1.75
66195;PMS7003;53000;45.182;5.736;2022-09-14T14:23:47;2.25;1.00;1.00
66195;PMS7003;53000;45.182;5.736;2022-09-14T14:26:17;2.25;2.25;1.75
66195;PMS7003;53000;45.182;5.736;2022-09-14T14:28:49;1.50;0.50;0.00
66195;PMS7003;53000;45.182;5.736;2022-09-14T14:31:17;1.25;1.00;1.00
66195;PMS7003;53000;45.182;5.736;2022-09-14T14:33:48;3.00;1.75;1.50
66195;PMS7003;53000;45.182;5.736;2022-09-14T14:36:15;2.00;1.75;1.75
66195;PMS7003;53000;45.182;5.736;2022-09-14T14:38:42;2.50;1.25;0.75
66195;PMS7003;53000;45.182;5.736;2022-09-14T14:41:18;3.75;1.75;0.75
66195;PMS7003;53000;45.182;5.736;2022-09-14T14:43:45;1.00;1.00;0.25
66195;PMS7003;53000;45.182;5.736;2022-09-14T14:46:14;2.50;1.00;0.50
66195;PMS7003;53000;45.182;5.736;2022-09-14T14:48:41;2.75;1.00;0.75
66195;PMS7003;53000;45.182;5.736;2022-09-14T14:51:08;2.75;1.75;1.50
66195;PMS7003;53000;45.182;5.736;2022-09-14T14:53:38;1.25;0.50;0.50
66195;PMS7003;53000;45.182;5.736;2022-09-14T14:56:03;3.50;1.50;1.00
66195;PMS7003;53000;45.182;5.736;2022-09-14T14:58:29;1.00;1.00;0.00
66195;PMS7003;53000;45.182;5.736;2022-09-14T15:00:55;2.00;1.00;1.00
66195;PMS7003;53000;45.182;5.736;2022-09-14T15:03:20;0.25;0.25;0.00
66195;PMS7003;53000;45.182;5.736;2022-09-14T15:05:46;3.50;2.25;1.75
66195;PMS7003;53000;45.182;5.736;2022-09-14T15:08:13;2.75;2.50;1.75
66195;PMS7003;53000;45.182;5.736;2022-09-14T15:10:41;0.25;0.25;0.00
66195;PMS7003;53000;45.182;5.736;2022-09-14T15:13:08;4.75;2.75;1.00
66195;PMS7003;53000;45.182;5.736;2022-09-14T15:15:35;1.75;1.75;1.50
66195;PMS7003;53000;45.182;5.736;2022-09-14T15:18:01;2.75;2.00;1.50
66195;PMS7003;53000;45.182;5.736;2022-09-14T15:20:26;4.25;2.25;1.75
66195;PMS7003;53000;45.182;5.736;2022-09-14T15:22:52;2.00;2.00;0.75
66195;PMS7003;53000;45.182;5.736;2022-09-14T15:25:18;0.75;0.75;0.00
66195;PMS7003;53000;45.182;5.736;2022-09-14T15:27:45;1.50;1.50;1.50
66195;PMS7003;53000;45.182;5.736;2022-09-14T15:30:11;1.00;1.00;1.00
66195;PMS7003;53000;45.182;5.736;2022-09-14T15:32:37;2.00;0.00;0.00
66195;PMS7003;53000;45.182;5.736;2022-09-14T15:35:04;3.00;0.75;0.00
66195;PMS7003;53000;45.182;5.736;2022-09-14T15:37:31;2.00;0.00;0.00
66195;PMS7003;53000;45.182;5.736;2022-09-14T15:39:56;1.00;1.00;0.50
66195;PMS7003;53000;45.182;5.736;2022-09-14T15:42:21;4.00;1.75;1.00
66195;PMS7003;53000;45.182;5.736;2022-09-14T15:44:48;2.75;2.75;1.75
66195;PMS7003;53000;45.182;5.736;2022-09-14T15:47:14;1.50;1.50;0.75
66195;PMS7003;53000;45.182;5.736;2022-09-14T15:49:40;1.25;1.25;1.00
66195;PMS7003;53000;45.182;5.736;2022-09-14T15:52:06;1.75;1.25;1.00
66195;PMS7003;53000;45.182;5.736;2022-09-14T15:54:33;2.00;2.00;1.00
66195;PMS7003;53000;45.182;5.736;2022-09-14T15:57:01;1.50;1.50;1.00
66195;PMS7003;53000;45.182;5.736;2022-09-14T15:59:27;2.25;1.00;1.00
66195;PMS7003;53000;45.182;5.736;2022-09-14T16:01:53;4.00;2.00;2.00
66195;PMS7003;53000;45.182;5.736;2022-09-14T16:04:19;2.50;1.50;1.50
66195;PMS7003;53000;45.182;5.736;2022-09-14T16:06:45;2.00;1.00;0.00
66195;PMS7003;53000;45.182;5.736;2022-09-14T16:09:12;1.50;1.50;0.50
66195;PMS7003;53000;45.182;5.736;2022-09-14T16:11:38;3.00;3.00;2.25
66195;PMS7003;53000;45.182;5.736;2022-09-14T16:14:05;1.25;0.75;0.50
66195;PMS7003;53000;45.182;5.736;2022-09-14T16:16:31;1.75;1.00;0.00
66195;PMS7003;53000;45.182;5.736;2022-09-14T16:19:02;2.75;2.50;1.00
66195;PMS7003;53000;45.182;5.736;2022-09-14T16:21:32;1.50;1.00;0.75
66195;PMS7003;53000;45.182;5.736;2022-09-14T16:23:59;3.00;2.00;1.50
66195;PMS7003;53000;45.182;5.736;2022-09-14T16:26:28;1.00;1.00;1.00
66195;PMS7003;53000;45.182;5.736;2022-09-14T16:28:56;2.25;1.75;1.00
66195;PMS7003;53000;45.182;5.736;2022-09-14T16:31:23;3.75;3.00;2.50
66195;PMS7003;53000;45.182;5.736;2022-09-14T16:33:52;3.00;1.25;0.75
66195;PMS7003;53000;45.182;5.736;2022-09-14T16:36:20;4.50;1.75;1.50
66195;PMS7003;53000;45.182;5.736;2022-09-14T16:39:00;3.75;3.00;2.00
66195;PMS7003;53000;45.182;5.736;2022-09-14T16:41:28;3.00;3.00;2.00
66195;PMS7003;53000;45.182;5.736;2022-09-14T16:43:55;3.00;1.00;0.50
66195;PMS7003;53000;45.182;5.736;2022-09-14T16:46:22;3.00;2.00;1.00
66195;PMS7003;53000;45.182;5.736;2022-09-14T16:48:49;3.75;2.00;1.25
66195;PMS7003;53000;45.182;5.736;2022-09-14T16:51:15;3.00;2.00;1.00
66195;PMS7003;53000;45.182;5.736;2022-09-14T16:53:43;3.00;2.25;2.00
66195;PMS7003;53000;45.182;5.736;2022-09-14T16:56:29;2.00;2.00;2.00
66195;PMS7003;53000;45.182;5.736;2022-09-14T16:58:56;1.50;1.50;1.25